sensor_id;sensor_type;location;lat;lon;timestamp;temperature;humidity
16076;DHT22;8142;48.242;11.644;2023-03-09T00:00:55;8.70;99.90
16076;DHT22;8142;48.242;11.644;2023-03-09T00:03:21;8.70;99.90
16076;DHT22;8142;48.242;11.644;2023-03-09T00:05:58;8.80;99.90
16076;DHT22;8142;48.242;11.644;2023-03-09T00:08:27;8.80;99.90
16076;DHT22;8142;48.242;11.644;2023-03-09T00:10:53;8.70;99.90
16076;DHT22;8142;48.242;11.644;2023-03-09T00:13:20;8.80;99.90
16076;DHT22;8142;48.242;11.644;2023-03-09T00:15:46;8.90;99.90
16076;DHT22;8142;48.242;11.644;2023-03-09T00:18:22;8.90;99.90
16076;DHT22;8142;48.242;11.644;2023-03-09T00:20:48;9.00;99.90
16076;DHT22;8142;48.242;11.644;2023-03-09T00:23:14;9.00;99.90
16076;DHT22;8142;48.242;11.644;2023-03-09T00:25:44;9.10;99.90
16076;DHT22;8142;48.242;11.644;2023-03-09T00:28:10;9.10;99.90
16076;DHT22;8142;48.242;11.644;2023-03-09T00:30:36;9.20;99.90
16076;DHT22;8142;48.242;11.644;2023-03-09T00:33:02;9.30;99.90
16076;DHT22;8142;48.242;11.644;2023-03-09T00:35:28;9.30;99.90
16076;DHT22;8142;48.242;11.644;2023-03-09T00:37:54;9.40;99.90
16076;DHT22;8142;48.242;11.644;2023-03-09T00:40:20;9.40;99.90
16076;DHT22;8142;48.242;11.644;2023-03-09T00:42:46;9.50;99.90
16076;DHT22;8142;48.242;11.644;2023-03-09T00:45:13;9.50;99.90
16076;DHT22;8142;48.242;11.644;2023-03-09T00:47:39;9.50;99.90
16076;DHT22;8142;48.242;11.644;2023-03-09T00:50:07;9.60;99.90
16076;DHT22;8142;48.242;11.644;2023-03-09T00:52:33;9.60;99.90
16076;DHT22;8142;48.242;11.644;2023-03-09T00:54:59;9.60;99.90
16076;DHT22;8142;48.242;11.644;2023-03-09T00:57:26;9.70;99.90
16076;DHT22;8142;48.242;11.644;2023-03-09T00:59:52;9.70;99.90
16076;DHT22;8142;48.242;11.644;2023-03-09T01:02:19;9.70;99.90
16076;DHT22;8142;48.242;11.644;2023-03-09T01:04:46;9.80;99.90
16076;DHT22;8142;48.242;11.644;2023-03-09T01:07:12;9.80;99.90
16076;DHT22;8142;48.242;11.644;2023-03-09T01:09:38;9.80;99.90
16076;DHT22;8142;48.242;11.644;2023-03-09T01:12:05;9.80;99.90
16076;DHT22;8142;48.242;11.644;2023-03-09T01:14:32;9.80;99.90
16076;DHT22;8142;48.242;11.644;2023-03-09T01:16:58;9.80;99.90
16076;DHT22;8142;48.242;11.644;2023-03-09T01:19:24;9.80;99.90
16076;DHT22;8142;48.242;11.644;2023-03-09T01:21:50;9.80;99.90
16076;DHT22;8142;48.242;11.644;2023-03-09T01:24:16;9.80;99.90
16076;DHT22;8142;48.242;11.644;2023-03-09T01:26:41;9.80;99.90
16076;DHT22;8142;48.242;11.644;2023-03-09T01:29:08;9.80;99.90
16076;DHT22;8142;48.242;11.644;2023-03-09T01:31:34;9.80;99.90
16076;DHT22;8142;48.242;11.644;2023-03-09T01:34:00;9.80;99.90
16076;DHT22;8142;48.242;11.644;2023-03-09T01:36:25;9.80;99.90
16076;DHT22;8142;48.242;11.644;2023-03-09T01:38:51;9.80;99.90
16076;DHT22;8142;48.242;11.644;2023-03-09T01:41:19;9.70;99.90
16076;DHT22;8142;48.242;11.644;2023-03-09T01:43:47;9.70;99.90
16076;DHT22;8142;48.242;11.644;2023-03-09T01:49:16;9.70;99.90
16076;DHT22;8142;48.242;11.644;2023-03-09T01:54:19;9.70;99.90
16076;DHT22;8142;48.242;11.644;2023-03-09T01:56:47;9.80;99.90
16076;DHT22;8142;48.242;11.644;2023-03-09T01:59:16;9.80;99.90
16076;DHT22;8142;48.242;11.644;2023-03-09T02:01:42;9.80;99.90
16076;DHT22;8142;48.242;11.644;2023-03-09T02:04:16;9.80;99.90
16076;DHT22;8142;48.242;11.644;2023-03-09T02:06:46;9.90;99.90
16076;DHT22;8142;48.242;11.644;2023-03-09T02:11:53;9.90;99.90
16076;DHT22;8142;48.242;11.644;2023-03-09T02:14:20;10.00;99.90
16076;DHT22;8142;48.242;11.644;2023-03-09T02:16:46;10.00;99.90
16076;DHT22;8142;48.242;11.644;2023-03-09T02:21:59;10.10;99.90
16076;DHT22;8142;48.242;11.644;2023-03-09T02:24:37;10.10;99.90
16076;DHT22;8142;48.242;11.644;2023-03-09T02:29:37;10.20;99.90
16076;DHT22;8142;48.242;11.644;2023-03-09T02:32:03;10.20;99.90
16076;DHT22;8142;48.242;11.644;2023-03-09T02:34:29;10.20;99.90
16076;DHT22;8142;48.242;11.644;2023-03-09T02:36:55;10.20;99.90
16076;DHT22;8142;48.242;11.644;2023-03-09T02:39:42;10.20;99.90
16076;DHT22;8142;48.242;11.644;2023-03-09T02:42:10;10.10;99.90
16076;DHT22;8142;48.242;11.644;2023-03-09T02:44:36;10.10;99.90
16076;DHT22;8142;48.242;11.644;2023-03-09T02:47:07;10.10;99.90
16076;DHT22;8142;48.242;11.644;2023-03-09T02:49:33;10.00;99.90
16076;DHT22;8142;48.242;11.644;2023-03-09T02:51:59;9.80;99.90
16076;DHT22;8142;48.242;11.644;2023-03-09T02:54:25;9.60;99.90
16076;DHT22;8142;48.242;11.644;2023-03-09T02:56:50;9.50;99.90
16076;DHT22;8142;48.242;11.644;2023-03-09T02:59:16;9.30;99.90
16076;DHT22;8142;48.242;11.644;2023-03-09T03:01:42;9.20;99.90
16076;DHT22;8142;48.242;11.644;2023-03-09T03:04:08;9.10;99.90
16076;DHT22;8142;48.242;11.644;2023-03-09T03:06:34;9.00;99.90
16076;DHT22;8142;48.242;11.644;2023-03-09T03:09:00;8.90;99.90
16076;DHT22;8142;48.242;11.644;2023-03-09T03:11:26;8.80;99.90
16076;DHT22;8142;48.242;11.644;2023-03-09T03:13:51;8.80;99.90
16076;DHT22;8142;48.242;11.644;2023-03-09T03:16:20;8.70;99.90
16076;DHT22;8142;48.242;11.644;2023-03-09T03:18:46;8.70;99.90
16076;DHT22;8142;48.242;11.644;2023-03-09T03:21:12;8.70;99.90
16076;DHT22;8142;48.242;11.644;2023-03-09T03:23:38;8.60;99.90
16076;DHT22;8142;48.242;11.644;2023-03-09T03:26:05;8.50;99.90
16076;DHT22;8142;48.242;11.644;2023-03-09T03:28:32;8.50;99.90
16076;DHT22;8142;48.242;11.644;2023-03-09T03:30:57;8.50;99.90
16076;DHT22;8142;48.242;11.644;2023-03-09T03:33:23;8.60;99.90
16076;DHT22;8142;48.242;11.644;2023-03-09T03:35:49;8.60;99.90
16076;DHT22;8142;48.242;11.644;2023-03-09T03:38:15;8.70;99.90
16076;DHT22;8142;48.242;11.644;2023-03-09T03:40:41;8.60;99.90
16076;DHT22;8142;48.242;11.644;2023-03-09T03:43:07;8.60;99.90
16076;DHT22;8142;48.242;11.644;2023-03-09T03:45:33;8.60;99.90
16076;DHT22;8142;48.242;11.644;2023-03-09T03:47:58;8.60;99.90
16076;DHT22;8142;48.242;11.644;2023-03-09T03:50:24;8.60;99.90
16076;DHT22;8142;48.242;11.644;2023-03-09T03:52:50;8.60;99.90
16076;DHT22;8142;48.242;11.644;2023-03-09T03:55:16;8.70;99.90
16076;DHT22;8142;48.242;11.644;2023-03-09T03:57:42;8.70;99.90
16076;DHT22;8142;48.242;11.644;2023-03-09T04:00:08;8.70;99.90
16076;DHT22;8142;48.242;11.644;2023-03-09T04:02:38;8.70;99.90
16076;DHT22;8142;48.242;11.644;2023-03-09T04:05:05;8.70;99.90
16076;DHT22;8142;48.242;11.644;2023-03-09T04:07:32;8.70;99.90
16076;DHT22;8142;48.242;11.644;2023-03-09T04:09:58;8.70;99.90
16076;DHT22;8142;48.242;11.644;2023-03-09T04:12:24;8.60;99.90
16076;DHT22;8142;48.242;11.644;2023-03-09T04:14:50;8.60;99.90
16076;DHT22;8142;48.242;11.644;2023-03-09T04:17:16;8.50;99.90
16076;DHT22;8142;48.242;11.644;2023-03-09T04:19:41;8.50;99.90
16076;DHT22;8142;48.242;11.644;2023-03-09T04:22:09;8.40;99.90
16076;DHT22;8142;48.242;11.644;2023-03-09T04:24:35;8.30;99.90
16076;DHT22;8142;48.242;11.644;2023-03-09T04:27:01;8.40;99.90
16076;DHT22;8142;48.242;11.644;2023-03-09T04:29:27;8.40;99.90
16076;DHT22;8142;48.242;11.644;2023-03-09T04:31:53;8.30;99.90
16076;DHT22;8142;48.242;11.644;2023-03-09T04:34:18;8.30;99.90
16076;DHT22;8142;48.242;11.644;2023-03-09T04:36:44;8.30;99.90
16076;DHT22;8142;48.242;11.644;2023-03-09T04:39:10;8.30;99.90
16076;DHT22;8142;48.242;11.644;2023-03-09T04:41:36;8.30;99.90
16076;DHT22;8142;48.242;11.644;2023-03-09T04:44:03;8.30;99.90
16076;DHT22;8142;48.242;11.644;2023-03-09T04:46:28;8.30;99.90
16076;DHT22;8142;48.242;11.644;2023-03-09T04:48:54;8.30;99.90
16076;DHT22;8142;48.242;11.644;2023-03-09T04:51:20;8.30;99.90
16076;DHT22;8142;48.242;11.644;2023-03-09T04:53:46;8.20;99.90
16076;DHT22;8142;48.242;11.644;2023-03-09T04:56:12;8.30;99.90
16076;DHT22;8142;48.242;11.644;2023-03-09T04:58:38;8.20;99.90
16076;DHT22;8142;48.242;11.644;2023-03-09T05:01:04;8.30;99.90
16076;DHT22;8142;48.242;11.644;2023-03-09T05:03:30;8.30;99.90
16076;DHT22;8142;48.242;11.644;2023-03-09T05:05:56;8.30;99.90
16076;DHT22;8142;48.242;11.644;2023-03-09T05:08:22;8.40;99.90
16076;DHT22;8142;48.242;11.644;2023-03-09T05:10:48;8.40;99.90
16076;DHT22;8142;48.242;11.644;2023-03-09T05:13:14;8.40;99.90
16076;DHT22;8142;48.242;11.644;2023-03-09T05:15:41;8.40;99.90
16076;DHT22;8142;48.242;11.644;2023-03-09T05:18:09;8.50;99.90
16076;DHT22;8142;48.242;11.644;2023-03-09T05:20:37;8.40;99.90
16076;DHT22;8142;48.242;11.644;2023-03-09T05:23:04;8.50;99.90
16076;DHT22;8142;48.242;11.644;2023-03-09T05:25:30;8.50;99.90
16076;DHT22;8142;48.242;11.644;2023-03-09T05:27:56;8.50;99.90
16076;DHT22;8142;48.242;11.644;2023-03-09T05:30:22;8.50;99.90
16076;DHT22;8142;48.242;11.644;2023-03-09T05:32:48;8.60;99.90
16076;DHT22;8142;48.242;11.644;2023-03-09T05:35:19;8.50;99.90
16076;DHT22;8142;48.242;11.644;2023-03-09T05:37:45;8.60;99.90
16076;DHT22;8142;48.242;11.644;2023-03-09T05:40:13;8.60;99.90
16076;DHT22;8142;48.242;11.644;2023-03-09T05:42:40;8.60;99.90
16076;DHT22;8142;48.242;11.644;2023-03-09T05:45:07;8.60;99.90
16076;DHT22;8142;48.242;11.644;2023-03-09T05:47:35;8.70;99.90
16076;DHT22;8142;48.242;11.644;2023-03-09T05:50:01;8.60;99.90
16076;DHT22;8142;48.242;11.644;2023-03-09T05:52:27;8.70;99.90
16076;DHT22;8142;48.242;11.644;2023-03-09T05:54:53;8.70;99.90
16076;DHT22;8142;48.242;11.644;2023-03-09T05:57:19;8.70;99.90
16076;DHT22;8142;48.242;11.644;2023-03-09T05:59:47;8.80;99.90
16076;DHT22;8142;48.242;11.644;2023-03-09T06:02:13;8.80;99.90
16076;DHT22;8142;48.242;11.644;2023-03-09T06:04:39;8.80;99.90
16076;DHT22;8142;48.242;11.644;2023-03-09T06:07:04;8.80;99.90
16076;DHT22;8142;48.242;11.644;2023-03-09T06:09:30;8.80;99.90
16076;DHT22;8142;48.242;11.644;2023-03-09T06:11:56;8.70;99.90
16076;DHT22;8142;48.242;11.644;2023-03-09T06:14:22;8.70;99.90
16076;DHT22;8142;48.242;11.644;2023-03-09T06:16:48;8.70;99.90
16076;DHT22;8142;48.242;11.644;2023-03-09T06:19:14;8.70;99.90
16076;DHT22;8142;48.242;11.644;2023-03-09T06:21:40;8.70;99.90
16076;DHT22;8142;48.242;11.644;2023-03-09T06:24:06;8.70;99.90
16076;DHT22;8142;48.242;11.644;2023-03-09T06:26:32;8.70;99.90
16076;DHT22;8142;48.242;11.644;2023-03-09T06:28:58;8.70;99.90
16076;DHT22;8142;48.242;11.644;2023-03-09T06:31:24;8.70;99.90
16076;DHT22;8142;48.242;11.644;2023-03-09T06:33:50;8.70;99.90
16076;DHT22;8142;48.242;11.644;2023-03-09T06:36:17;8.70;99.90
16076;DHT22;8142;48.242;11.644;2023-03-09T06:38:43;8.70;99.90
16076;DHT22;8142;48.242;11.644;2023-03-09T06:41:09;8.70;99.90
16076;DHT22;8142;48.242;11.644;2023-03-09T06:43:35;8.70;99.90
16076;DHT22;8142;48.242;11.644;2023-03-09T06:46:01;8.70;99.90
16076;DHT22;8142;48.242;11.644;2023-03-09T06:48:27;8.80;99.90
16076;DHT22;8142;48.242;11.644;2023-03-09T06:50:53;8.80;99.90
16076;DHT22;8142;48.242;11.644;2023-03-09T06:53:19;8.80;99.90
16076;DHT22;8142;48.242;11.644;2023-03-09T06:55:45;8.70;99.90
16076;DHT22;8142;48.242;11.644;2023-03-09T06:58:11;8.80;99.90
16076;DHT22;8142;48.242;11.644;2023-03-09T07:00:37;8.90;99.90
16076;DHT22;8142;48.242;11.644;2023-03-09T07:03:06;8.70;99.90
16076;DHT22;8142;48.242;11.644;2023-03-09T07:05:38;8.70;99.90
16076;DHT22;8142;48.242;11.644;2023-03-09T07:08:04;8.80;99.90
16076;DHT22;8142;48.242;11.644;2023-03-09T07:10:30;8.80;99.90
16076;DHT22;8142;48.242;11.644;2023-03-09T07:12:56;8.80;99.90
16076;DHT22;8142;48.242;11.644;2023-03-09T07:15:21;8.80;99.90
16076;DHT22;8142;48.242;11.644;2023-03-09T07:17:47;8.80;99.90
16076;DHT22;8142;48.242;11.644;2023-03-09T07:20:13;8.80;99.90
16076;DHT22;8142;48.242;11.644;2023-03-09T07:22:39;8.80;99.90
16076;DHT22;8142;48.242;11.644;2023-03-09T07:25:06;8.90;99.90
16076;DHT22;8142;48.242;11.644;2023-03-09T07:27:32;8.90;99.90
16076;DHT22;8142;48.242;11.644;2023-03-09T07:29:58;8.90;99.90
16076;DHT22;8142;48.242;11.644;2023-03-09T07:32:24;8.90;99.90
16076;DHT22;8142;48.242;11.644;2023-03-09T07:34:50;8.90;99.90
16076;DHT22;8142;48.242;11.644;2023-03-09T07:37:16;8.90;99.90
16076;DHT22;8142;48.242;11.644;2023-03-09T07:39:42;9.00;99.90
16076;DHT22;8142;48.242;11.644;2023-03-09T07:42:08;9.00;99.90
16076;DHT22;8142;48.242;11.644;2023-03-09T07:44:33;9.00;99.90
16076;DHT22;8142;48.242;11.644;2023-03-09T07:46:59;9.00;99.90
16076;DHT22;8142;48.242;11.644;2023-03-09T07:49:25;9.00;99.90
16076;DHT22;8142;48.242;11.644;2023-03-09T07:51:51;9.20;99.90
16076;DHT22;8142;48.242;11.644;2023-03-09T07:54:17;9.20;99.90
16076;DHT22;8142;48.242;11.644;2023-03-09T07:56:43;9.20;99.90
16076;DHT22;8142;48.242;11.644;2023-03-09T07:59:14;9.30;99.90
16076;DHT22;8142;48.242;11.644;2023-03-09T08:01:41;9.40;99.90
16076;DHT22;8142;48.242;11.644;2023-03-09T08:04:06;9.50;99.90
16076;DHT22;8142;48.242;11.644;2023-03-09T08:06:32;9.50;99.90
16076;DHT22;8142;48.242;11.644;2023-03-09T08:08:59;9.60;99.90
16076;DHT22;8142;48.242;11.644;2023-03-09T08:11:25;9.70;99.90
16076;DHT22;8142;48.242;11.644;2023-03-09T08:13:51;9.70;99.90
16076;DHT22;8142;48.242;11.644;2023-03-09T08:16:17;9.70;99.90
16076;DHT22;8142;48.242;11.644;2023-03-09T08:18:43;9.70;99.90
16076;DHT22;8142;48.242;11.644;2023-03-09T08:21:12;9.70;99.90
16076;DHT22;8142;48.242;11.644;2023-03-09T08:23:39;9.70;99.90
16076;DHT22;8142;48.242;11.644;2023-03-09T08:26:08;9.70;99.90
16076;DHT22;8142;48.242;11.644;2023-03-09T08:28:34;9.80;99.90
16076;DHT22;8142;48.242;11.644;2023-03-09T08:31:00;9.80;99.90
16076;DHT22;8142;48.242;11.644;2023-03-09T08:33:26;9.80;99.90
16076;DHT22;8142;48.242;11.644;2023-03-09T08:35:52;9.80;99.90
16076;DHT22;8142;48.242;11.644;2023-03-09T08:38:17;9.80;99.90
16076;DHT22;8142;48.242;11.644;2023-03-09T08:40:43;9.90;99.90
16076;DHT22;8142;48.242;11.644;2023-03-09T08:43:09;9.90;99.90
16076;DHT22;8142;48.242;11.644;2023-03-09T08:45:37;10.00;99.90
16076;DHT22;8142;48.242;11.644;2023-03-09T08:48:03;10.10;99.90
16076;DHT22;8142;48.242;11.644;2023-03-09T08:50:29;10.10;99.90
16076;DHT22;8142;48.242;11.644;2023-03-09T08:52:55;10.10;99.90
16076;DHT22;8142;48.242;11.644;2023-03-09T08:55:22;10.20;99.90
16076;DHT22;8142;48.242;11.644;2023-03-09T08:57:48;10.30;99.90
16076;DHT22;8142;48.242;11.644;2023-03-09T09:00:14;10.30;99.90
16076;DHT22;8142;48.242;11.644;2023-03-09T09:02:41;10.40;99.90
16076;DHT22;8142;48.242;11.644;2023-03-09T09:05:07;10.50;99.90
16076;DHT22;8142;48.242;11.644;2023-03-09T09:07:34;10.50;99.90
16076;DHT22;8142;48.242;11.644;2023-03-09T09:10:00;10.50;99.90
16076;DHT22;8142;48.242;11.644;2023-03-09T09:12:27;10.60;99.90
16076;DHT22;8142;48.242;11.644;2023-03-09T09:14:54;10.70;99.90
16076;DHT22;8142;48.242;11.644;2023-03-09T09:17:21;10.60;99.90
16076;DHT22;8142;48.242;11.644;2023-03-09T09:19:47;10.70;99.90
16076;DHT22;8142;48.242;11.644;2023-03-09T09:22:12;10.80;99.90
16076;DHT22;8142;48.242;11.644;2023-03-09T09:24:39;10.90;99.90
16076;DHT22;8142;48.242;11.644;2023-03-09T09:27:06;11.00;99.90
16076;DHT22;8142;48.242;11.644;2023-03-09T09:29:34;11.00;99.90
16076;DHT22;8142;48.242;11.644;2023-03-09T09:32:00;11.00;99.90
16076;DHT22;8142;48.242;11.644;2023-03-09T09:34:31;11.10;99.90
16076;DHT22;8142;48.242;11.644;2023-03-09T09:36:59;11.00;99.90
16076;DHT22;8142;48.242;11.644;2023-03-09T09:39:28;11.00;99.90
16076;DHT22;8142;48.242;11.644;2023-03-09T09:41:56;11.00;99.90
16076;DHT22;8142;48.242;11.644;2023-03-09T09:44:27;11.00;99.90
16076;DHT22;8142;48.242;11.644;2023-03-09T09:46:56;11.00;99.90
16076;DHT22;8142;48.242;11.644;2023-03-09T09:49:26;11.00;99.90
16076;DHT22;8142;48.242;11.644;2023-03-09T09:57:43;11.00;99.90
16076;DHT22;8142;48.242;11.644;2023-03-09T10:00:13;11.00;99.90
16076;DHT22;8142;48.242;11.644;2023-03-09T10:03:03;11.10;99.90
16076;DHT22;8142;48.242;11.644;2023-03-09T10:05:50;11.10;99.90
16076;DHT22;8142;48.242;11.644;2023-03-09T10:08:37;11.10;99.90
16076;DHT22;8142;48.242;11.644;2023-03-09T10:11:24;11.20;99.90
16076;DHT22;8142;48.242;11.644;2023-03-09T10:14:06;11.20;99.90
16076;DHT22;8142;48.242;11.644;2023-03-09T10:16:58;11.20;99.90
16076;DHT22;8142;48.242;11.644;2023-03-09T10:19:34;11.30;99.90
16076;DHT22;8142;48.242;11.644;2023-03-09T10:24:50;11.50;99.90
16076;DHT22;8142;48.242;11.644;2023-03-09T10:27:18;11.50;99.90
16076;DHT22;8142;48.242;11.644;2023-03-09T10:32:49;11.60;99.90
16076;DHT22;8142;48.242;11.644;2023-03-09T10:37:52;11.60;99.90
16076;DHT22;8142;48.242;11.644;2023-03-09T10:40:43;11.60;99.90
16076;DHT22;8142;48.242;11.644;2023-03-09T10:43:32;11.50;99.90
16076;DHT22;8142;48.242;11.644;2023-03-09T10:48:39;11.50;99.90
16076;DHT22;8142;48.242;11.644;2023-03-09T10:51:24;11.50;99.90
16076;DHT22;8142;48.242;11.644;2023-03-09T10:53:51;11.50;99.90
16076;DHT22;8142;48.242;11.644;2023-03-09T10:56:27;11.50;99.90
16076;DHT22;8142;48.242;11.644;2023-03-09T11:01:37;11.50;99.90
16076;DHT22;8142;48.242;11.644;2023-03-09T11:14:55;11.50;99.90
16076;DHT22;8142;48.242;11.644;2023-03-09T11:17:45;11.50;99.90
16076;DHT22;8142;48.242;11.644;2023-03-09T11:28:34;11.50;99.90
16076;DHT22;8142;48.242;11.644;2023-03-09T11:31:01;11.50;99.90
16076;DHT22;8142;48.242;11.644;2023-03-09T11:33:29;11.50;99.90
16076;DHT22;8142;48.242;11.644;2023-03-09T11:35:56;11.50;99.90
16076;DHT22;8142;48.242;11.644;2023-03-09T11:38:24;11.50;99.90
16076;DHT22;8142;48.242;11.644;2023-03-09T11:41:11;11.60;99.90
16076;DHT22;8142;48.242;11.644;2023-03-09T11:43:42;11.70;99.90
16076;DHT22;8142;48.242;11.644;2023-03-09T11:46:14;11.70;99.90
16076;DHT22;8142;48.242;11.644;2023-03-09T11:48:44;11.80;99.90
16076;DHT22;8142;48.242;11.644;2023-03-09T11:51:28;11.80;99.90
16076;DHT22;8142;48.242;11.644;2023-03-09T11:54:27;11.90;99.90
16076;DHT22;8142;48.242;11.644;2023-03-09T11:56:54;11.90;99.90
16076;DHT22;8142;48.242;11.644;2023-03-09T11:59:33;11.90;99.90
16076;DHT22;8142;48.242;11.644;2023-03-09T12:02:27;12.00;99.90
16076;DHT22;8142;48.242;11.644;2023-03-09T12:04:55;12.00;99.90
16076;DHT22;8142;48.242;11.644;2023-03-09T12:10:43;12.10;99.90
16076;DHT22;8142;48.242;11.644;2023-03-09T12:13:33;12.00;99.90
16076;DHT22;8142;48.242;11.644;2023-03-09T12:16:14;12.20;99.90
16076;DHT22;8142;48.242;11.644;2023-03-09T12:21:38;12.20;99.90
16076;DHT22;8142;48.242;11.644;2023-03-09T12:24:40;12.30;99.90
16076;DHT22;8142;48.242;11.644;2023-03-09T12:27:18;12.30;99.90
16076;DHT22;8142;48.242;11.644;2023-03-09T12:30:06;12.30;99.90
16076;DHT22;8142;48.242;11.644;2023-03-09T12:32:37;12.30;99.90
16076;DHT22;8142;48.242;11.644;2023-03-09T12:35:09;12.40;99.90
16076;DHT22;8142;48.242;11.644;2023-03-09T12:42:55;12.40;99.90
16076;DHT22;8142;48.242;11.644;2023-03-09T12:53:24;12.50;99.90
16076;DHT22;8142;48.242;11.644;2023-03-09T12:55:56;12.60;99.90
16076;DHT22;8142;48.242;11.644;2023-03-09T12:58:44;12.60;99.90
16076;DHT22;8142;48.242;11.644;2023-03-09T13:01:26;12.70;99.90
16076;DHT22;8142;48.242;11.644;2023-03-09T13:06:40;12.50;99.90
16076;DHT22;8142;48.242;11.644;2023-03-09T13:09:16;12.70;99.90
16076;DHT22;8142;48.242;11.644;2023-03-09T13:11:58;12.60;99.90
16076;DHT22;8142;48.242;11.644;2023-03-09T13:16:58;12.60;99.90
16076;DHT22;8142;48.242;11.644;2023-03-09T13:26:49;12.60;99.90
16076;DHT22;8142;48.242;11.644;2023-03-09T13:29:20;12.60;99.90
16076;DHT22;8142;48.242;11.644;2023-03-09T13:31:48;12.60;99.90
16076;DHT22;8142;48.242;11.644;2023-03-09T13:34:28;12.70;99.90
16076;DHT22;8142;48.242;11.644;2023-03-09T13:37:04;12.70;99.90
16076;DHT22;8142;48.242;11.644;2023-03-09T13:39:31;12.70;99.90
16076;DHT22;8142;48.242;11.644;2023-03-09T13:42:03;12.70;99.90
16076;DHT22;8142;48.242;11.644;2023-03-09T13:44:31;12.60;99.90
16076;DHT22;8142;48.242;11.644;2023-03-09T13:46:57;12.60;99.90
16076;DHT22;8142;48.242;11.644;2023-03-09T13:49:33;12.50;99.90
16076;DHT22;8142;48.242;11.644;2023-03-09T13:52:02;12.70;99.90
16076;DHT22;8142;48.242;11.644;2023-03-09T13:54:35;12.60;99.90
16076;DHT22;8142;48.242;11.644;2023-03-09T13:57:32;12.70;99.90
16076;DHT22;8142;48.242;11.644;2023-03-09T14:00:19;12.80;99.90
16076;DHT22;8142;48.242;11.644;2023-03-09T14:02:46;12.80;99.90
16076;DHT22;8142;48.242;11.644;2023-03-09T14:07:55;12.90;99.90
16076;DHT22;8142;48.242;11.644;2023-03-09T14:10:31;12.90;99.90
16076;DHT22;8142;48.242;11.644;2023-03-09T14:13:16;12.90;99.90
16076;DHT22;8142;48.242;11.644;2023-03-09T14:16:05;13.00;99.90
16076;DHT22;8142;48.242;11.644;2023-03-09T14:18:36;13.00;99.90
16076;DHT22;8142;48.242;11.644;2023-03-09T14:21:03;13.00;99.90
16076;DHT22;8142;48.242;11.644;2023-03-09T14:23:48;13.00;99.90
16076;DHT22;8142;48.242;11.644;2023-03-09T14:26:27;13.00;99.90
16076;DHT22;8142;48.242;11.644;2023-03-09T14:29:05;13.10;99.90
16076;DHT22;8142;48.242;11.644;2023-03-09T14:31:31;12.80;99.90
16076;DHT22;8142;48.242;11.644;2023-03-09T14:36:37;13.00;99.90
16076;DHT22;8142;48.242;11.644;2023-03-09T14:39:22;12.90;99.90
16076;DHT22;8142;48.242;11.644;2023-03-09T14:44:41;12.70;99.90
16076;DHT22;8142;48.242;11.644;2023-03-09T14:47:25;12.60;99.90
16076;DHT22;8142;48.242;11.644;2023-03-09T14:49:53;12.60;99.90
16076;DHT22;8142;48.242;11.644;2023-03-09T14:52:20;12.50;99.90
16076;DHT22;8142;48.242;11.644;2023-03-09T14:54:47;12.50;99.90
16076;DHT22;8142;48.242;11.644;2023-03-09T14:57:15;12.30;99.90
16076;DHT22;8142;48.242;11.644;2023-03-09T14:59:42;12.40;99.90
16076;DHT22;8142;48.242;11.644;2023-03-09T15:02:10;12.30;99.90
16076;DHT22;8142;48.242;11.644;2023-03-09T15:04:37;12.40;99.90
16076;DHT22;8142;48.242;11.644;2023-03-09T15:07:05;12.40;99.90
16076;DHT22;8142;48.242;11.644;2023-03-09T15:09:32;12.50;99.90
16076;DHT22;8142;48.242;11.644;2023-03-09T15:12:00;12.40;99.90
16076;DHT22;8142;48.242;11.644;2023-03-09T15:14:43;12.40;99.90
16076;DHT22;8142;48.242;11.644;2023-03-09T15:17:14;12.50;99.90
16076;DHT22;8142;48.242;11.644;2023-03-09T15:19:41;12.50;99.90
16076;DHT22;8142;48.242;11.644;2023-03-09T15:22:11;12.60;99.90
16076;DHT22;8142;48.242;11.644;2023-03-09T15:24:37;12.70;99.90
16076;DHT22;8142;48.242;11.644;2023-03-09T15:27:03;12.60;99.90
16076;DHT22;8142;48.242;11.644;2023-03-09T15:29:29;12.70;99.90
16076;DHT22;8142;48.242;11.644;2023-03-09T15:31:55;12.80;99.90
16076;DHT22;8142;48.242;11.644;2023-03-09T15:34:21;12.80;99.90
16076;DHT22;8142;48.242;11.644;2023-03-09T15:36:47;12.90;99.90
16076;DHT22;8142;48.242;11.644;2023-03-09T15:39:13;12.80;99.90
16076;DHT22;8142;48.242;11.644;2023-03-09T15:41:39;12.80;99.90
16076;DHT22;8142;48.242;11.644;2023-03-09T15:44:04;12.90;99.90
16076;DHT22;8142;48.242;11.644;2023-03-09T15:46:30;12.80;99.90
16076;DHT22;8142;48.242;11.644;2023-03-09T15:48:56;12.80;99.90
16076;DHT22;8142;48.242;11.644;2023-03-09T15:51:23;12.70;99.90
16076;DHT22;8142;48.242;11.644;2023-03-09T15:53:50;12.60;99.90
16076;DHT22;8142;48.242;11.644;2023-03-09T15:56:16;12.70;99.90
16076;DHT22;8142;48.242;11.644;2023-03-09T15:58:44;12.70;99.90
16076;DHT22;8142;48.242;11.644;2023-03-09T16:01:15;12.60;99.90
16076;DHT22;8142;48.242;11.644;2023-03-09T16:03:44;12.50;99.90
16076;DHT22;8142;48.242;11.644;2023-03-09T16:06:11;12.50;99.90
16076;DHT22;8142;48.242;11.644;2023-03-09T16:08:37;12.50;99.90
16076;DHT22;8142;48.242;11.644;2023-03-09T16:11:03;12.50;99.90
16076;DHT22;8142;48.242;11.644;2023-03-09T16:13:30;12.40;99.90
16076;DHT22;8142;48.242;11.644;2023-03-09T16:15:56;12.40;99.90
16076;DHT22;8142;48.242;11.644;2023-03-09T16:18:21;12.30;99.90
16076;DHT22;8142;48.242;11.644;2023-03-09T16:20:48;12.20;99.90
16076;DHT22;8142;48.242;11.644;2023-03-09T16:23:14;12.10;99.90
16076;DHT22;8142;48.242;11.644;2023-03-09T16:25:41;12.10;99.90
16076;DHT22;8142;48.242;11.644;2023-03-09T16:28:07;12.00;99.90
16076;DHT22;8142;48.242;11.644;2023-03-09T16:30:33;12.00;99.90
16076;DHT22;8142;48.242;11.644;2023-03-09T16:33:00;12.00;99.90
16076;DHT22;8142;48.242;11.644;2023-03-09T16:35:26;11.90;99.90
16076;DHT22;8142;48.242;11.644;2023-03-09T16:37:53;11.90;99.90
16076;DHT22;8142;48.242;11.644;2023-03-09T16:40:20;11.80;99.90
16076;DHT22;8142;48.242;11.644;2023-03-09T16:42:46;11.80;99.90
16076;DHT22;8142;48.242;11.644;2023-03-09T16:45:14;11.70;99.90
16076;DHT22;8142;48.242;11.644;2023-03-09T16:47:40;11.70;99.90
16076;DHT22;8142;48.242;11.644;2023-03-09T16:50:12;11.60;99.90
16076;DHT22;8142;48.242;11.644;2023-03-09T16:52:38;11.60;99.90
16076;DHT22;8142;48.242;11.644;2023-03-09T16:55:07;11.50;99.90
16076;DHT22;8142;48.242;11.644;2023-03-09T16:57:33;11.50;99.90
16076;DHT22;8142;48.242;11.644;2023-03-09T17:00:00;11.40;99.90
16076;DHT22;8142;48.242;11.644;2023-03-09T17:02:27;11.40;99.90
16076;DHT22;8142;48.242;11.644;2023-03-09T17:04:54;11.30;99.90
16076;DHT22;8142;48.242;11.644;2023-03-09T17:07:22;11.20;99.90
16076;DHT22;8142;48.242;11.644;2023-03-09T17:09:48;11.20;99.90
16076;DHT22;8142;48.242;11.644;2023-03-09T17:12:14;11.20;99.90
16076;DHT22;8142;48.242;11.644;2023-03-09T17:14:40;11.10;99.90
16076;DHT22;8142;48.242;11.644;2023-03-09T17:17:06;11.00;99.90
16076;DHT22;8142;48.242;11.644;2023-03-09T17:19:32;11.00;99.90